<?xml version="1.0" encoding="UTF-8" standalone="no" ?>
<gpx xmlns="http://www.topografix.com/GPX/1/1" xmlns:xsi="http://www.w3.org/2001/XMLSchema-instance" xsi:schemaLocation="http://www.topografix.com/GPX/1/1 http://www.topografix.com/GPX/1/1/gpx.xsd" version="1.1" creator="VisuGPX - https://www.visugpx.com">
  <metadata>
    <name>20180529-castellane</name>
    <desc><![CDATA[Un petit circuit sur un sentier entre les collines au sud-ouest de Castellane, de Brayal à Castellane.]]></desc>
  </metadata>
  <trk>
    <name><![CDATA[20180529-170238-180052-x-MNT]]></name>
    <trkseg>
      <trkpt lat="43.8376" lon="6.49581">
        <ele>719</ele>
        <time>2018-05-29T15:02:38Z</time>
      </trkpt>
      <trkpt lat="43.83761" lon="6.49584">
        <ele>719</ele>
        <time>2018-05-29T15:02:45Z</time>
      </trkpt>
      <trkpt lat="43.8377" lon="6.49587">
        <ele>719</ele>
        <time>2018-05-29T15:02:51Z</time>
      </trkpt>
      <trkpt lat="43.8378" lon="6.49586">
        <ele>719</ele>
        <time>2018-05-29T15:02:57Z</time>
      </trkpt>
      <trkpt lat="43.83779" lon="6.49547">
        <ele>717</ele>
        <time>2018-05-29T15:03:12Z</time>
      </trkpt>
      <trkpt lat="43.83782" lon="6.49495">
        <ele>716</ele>
        <time>2018-05-29T15:03:26Z</time>
      </trkpt>
      <trkpt lat="43.83799" lon="6.49472">
        <ele>715</ele>
        <time>2018-05-29T15:03:38Z</time>
      </trkpt>
      <trkpt lat="43.83846" lon="6.49458">
        <ele>716</ele>
        <time>2018-05-29T15:03:53Z</time>
      </trkpt>
      <trkpt lat="43.83848" lon="6.49456">
        <ele>717</ele>
        <time>2018-05-29T15:03:54Z</time>
      </trkpt>
      <trkpt lat="43.8385" lon="6.49452">
        <ele>717</ele>
        <time>2018-05-29T15:03:55Z</time>
      </trkpt>
      <trkpt lat="43.83851" lon="6.49449">
        <ele>717</ele>
        <time>2018-05-29T15:03:56Z</time>
      </trkpt>
      <trkpt lat="43.83852" lon="6.49446">
        <ele>717</ele>
        <time>2018-05-29T15:03:57Z</time>
      </trkpt>
      <trkpt lat="43.83869" lon="6.49423">
        <ele>717</ele>
        <time>2018-05-29T15:04:06Z</time>
      </trkpt>
      <trkpt lat="43.83876" lon="6.49417">
        <ele>717</ele>
        <time>2018-05-29T15:04:09Z</time>
      </trkpt>
      <trkpt lat="43.83878" lon="6.49416">
        <ele>716</ele>
        <time>2018-05-29T15:04:10Z</time>
      </trkpt>
      <trkpt lat="43.83879" lon="6.49416">
        <ele>716</ele>
        <time>2018-05-29T15:04:11Z</time>
      </trkpt>
      <trkpt lat="43.83881" lon="6.49415">
        <ele>716</ele>
        <time>2018-05-29T15:04:12Z</time>
      </trkpt>
      <trkpt lat="43.83903" lon="6.49404">
        <ele>717</ele>
        <time>2018-05-29T15:04:26Z</time>
      </trkpt>
      <trkpt lat="43.83904" lon="6.49404">
        <ele>717</ele>
        <time>2018-05-29T15:04:27Z</time>
      </trkpt>
      <trkpt lat="43.83905" lon="6.49403">
        <ele>717</ele>
        <time>2018-05-29T15:04:28Z</time>
      </trkpt>
      <trkpt lat="43.83906" lon="6.49403">
        <ele>717</ele>
        <time>2018-05-29T15:04:29Z</time>
      </trkpt>
      <trkpt lat="43.83908" lon="6.49402">
        <ele>717</ele>
        <time>2018-05-29T15:04:30Z</time>
      </trkpt>
      <trkpt lat="43.83909" lon="6.49401">
        <ele>718</ele>
        <time>2018-05-29T15:04:31Z</time>
      </trkpt>
      <trkpt lat="43.83911" lon="6.49401">
        <ele>718</ele>
        <time>2018-05-29T15:04:32Z</time>
      </trkpt>
      <trkpt lat="43.8393" lon="6.4938">
        <ele>720</ele>
        <time>2018-05-29T15:04:45Z</time>
      </trkpt>
      <trkpt lat="43.83913" lon="6.49361">
        <ele>721</ele>
        <time>2018-05-29T15:04:56Z</time>
      </trkpt>
      <trkpt lat="43.8389" lon="6.4935">
        <ele>720</ele>
        <time>2018-05-29T15:05:08Z</time>
      </trkpt>
      <trkpt lat="43.83879" lon="6.49346">
        <ele>721</ele>
        <time>2018-05-29T15:05:15Z</time>
      </trkpt>
      <trkpt lat="43.83878" lon="6.49347">
        <ele>721</ele>
        <time>2018-05-29T15:05:16Z</time>
      </trkpt>
      <trkpt lat="43.83882" lon="6.4935">
        <ele>720</ele>
        <time>2018-05-29T15:05:19Z</time>
      </trkpt>
      <trkpt lat="43.83885" lon="6.49351">
        <ele>720</ele>
        <time>2018-05-29T15:05:20Z</time>
      </trkpt>
      <trkpt lat="43.83887" lon="6.49351">
        <ele>720</ele>
        <time>2018-05-29T15:05:21Z</time>
      </trkpt>
      <trkpt lat="43.8389" lon="6.49352">
        <ele>720</ele>
        <time>2018-05-29T15:05:22Z</time>
      </trkpt>
      <trkpt lat="43.83892" lon="6.49353">
        <ele>720</ele>
        <time>2018-05-29T15:05:23Z</time>
      </trkpt>
      <trkpt lat="43.83895" lon="6.49354">
        <ele>720</ele>
        <time>2018-05-29T15:05:24Z</time>
      </trkpt>
      <trkpt lat="43.83921" lon="6.49365">
        <ele>721</ele>
        <time>2018-05-29T15:05:33Z</time>
      </trkpt>
      <trkpt lat="43.83924" lon="6.49364">
        <ele>721</ele>
        <time>2018-05-29T15:05:34Z</time>
      </trkpt>
      <trkpt lat="43.83933" lon="6.4936">
        <ele>722</ele>
        <time>2018-05-29T15:05:39Z</time>
      </trkpt>
      <trkpt lat="43.83935" lon="6.49364">
        <ele>722</ele>
        <time>2018-05-29T15:05:40Z</time>
      </trkpt>
      <trkpt lat="43.83959" lon="6.49395">
        <ele>722</ele>
        <time>2018-05-29T15:05:49Z</time>
      </trkpt>
      <trkpt lat="43.84016" lon="6.49454">
        <ele>722</ele>
        <time>2018-05-29T15:06:03Z</time>
      </trkpt>
      <trkpt lat="43.8407" lon="6.49513">
        <ele>721</ele>
        <time>2018-05-29T15:06:16Z</time>
      </trkpt>
      <trkpt lat="43.84082" lon="6.49524">
        <ele>722</ele>
        <time>2018-05-29T15:06:19Z</time>
      </trkpt>
      <trkpt lat="43.84086" lon="6.49527">
        <ele>722</ele>
        <time>2018-05-29T15:06:20Z</time>
      </trkpt>
      <trkpt lat="43.8409" lon="6.49531">
        <ele>721</ele>
        <time>2018-05-29T15:06:21Z</time>
      </trkpt>
      <trkpt lat="43.84094" lon="6.49534">
        <ele>721</ele>
        <time>2018-05-29T15:06:22Z</time>
      </trkpt>
      <trkpt lat="43.84097" lon="6.49538">
        <ele>721</ele>
        <time>2018-05-29T15:06:23Z</time>
      </trkpt>
      <trkpt lat="43.84124" lon="6.49563">
        <ele>718</ele>
        <time>2018-05-29T15:06:35Z</time>
      </trkpt>
      <trkpt lat="43.84125" lon="6.49564">
        <ele>718</ele>
        <time>2018-05-29T15:06:36Z</time>
      </trkpt>
      <trkpt lat="43.84126" lon="6.49562">
        <ele>718</ele>
        <time>2018-05-29T15:06:37Z</time>
      </trkpt>
      <trkpt lat="43.84125" lon="6.49561">
        <ele>719</ele>
        <time>2018-05-29T15:06:38Z</time>
      </trkpt>
      <trkpt lat="43.84102" lon="6.49536">
        <ele>721</ele>
        <time>2018-05-29T15:06:51Z</time>
      </trkpt>
      <trkpt lat="43.8408" lon="6.49507">
        <ele>724</ele>
        <time>2018-05-29T15:07:04Z</time>
      </trkpt>
      <trkpt lat="43.8406" lon="6.49478">
        <ele>722</ele>
        <time>2018-05-29T15:07:17Z</time>
      </trkpt>
      <trkpt lat="43.84037" lon="6.49448">
        <ele>726</ele>
        <time>2018-05-29T15:07:31Z</time>
      </trkpt>
      <trkpt lat="43.84014" lon="6.49422">
        <ele>725</ele>
        <time>2018-05-29T15:07:45Z</time>
      </trkpt>
      <trkpt lat="43.84006" lon="6.49412">
        <ele>726</ele>
        <time>2018-05-29T15:08:00Z</time>
      </trkpt>
      <trkpt lat="43.84004" lon="6.49412">
        <ele>725</ele>
        <time>2018-05-29T15:08:28Z</time>
      </trkpt>
      <trkpt lat="43.84004" lon="6.49409">
        <ele>726</ele>
        <time>2018-05-29T15:08:57Z</time>
      </trkpt>
      <trkpt lat="43.84008" lon="6.49412">
        <ele>726</ele>
        <time>2018-05-29T15:09:21Z</time>
      </trkpt>
      <trkpt lat="43.84011" lon="6.49413">
        <ele>726</ele>
        <time>2018-05-29T15:09:59Z</time>
      </trkpt>
      <trkpt lat="43.84008" lon="6.49412">
        <ele>726</ele>
        <time>2018-05-29T15:10:35Z</time>
      </trkpt>
      <trkpt lat="43.84004" lon="6.4941">
        <ele>726</ele>
        <time>2018-05-29T15:10:45Z</time>
      </trkpt>
      <trkpt lat="43.84003" lon="6.49409">
        <ele>726</ele>
        <time>2018-05-29T15:10:46Z</time>
      </trkpt>
      <trkpt lat="43.84002" lon="6.49408">
        <ele>726</ele>
        <time>2018-05-29T15:10:47Z</time>
      </trkpt>
      <trkpt lat="43.84002" lon="6.49406">
        <ele>726</ele>
        <time>2018-05-29T15:10:48Z</time>
      </trkpt>
      <trkpt lat="43.84001" lon="6.49405">
        <ele>726</ele>
        <time>2018-05-29T15:10:49Z</time>
      </trkpt>
      <trkpt lat="43.84" lon="6.49403">
        <ele>727</ele>
        <time>2018-05-29T15:10:50Z</time>
      </trkpt>
      <trkpt lat="43.83999" lon="6.49401">
        <ele>727</ele>
        <time>2018-05-29T15:10:51Z</time>
      </trkpt>
      <trkpt lat="43.83979" lon="6.49357">
        <ele>730</ele>
        <time>2018-05-29T15:11:07Z</time>
      </trkpt>
      <trkpt lat="43.83963" lon="6.49324">
        <ele>733</ele>
        <time>2018-05-29T15:11:20Z</time>
      </trkpt>
      <trkpt lat="43.83952" lon="6.49298">
        <ele>736</ele>
        <time>2018-05-29T15:11:33Z</time>
      </trkpt>
      <trkpt lat="43.8395" lon="6.49296">
        <ele>736</ele>
        <time>2018-05-29T15:11:34Z</time>
      </trkpt>
      <trkpt lat="43.8393" lon="6.49279">
        <ele>735</ele>
        <time>2018-05-29T15:11:49Z</time>
      </trkpt>
      <trkpt lat="43.83916" lon="6.49267">
        <ele>738</ele>
        <time>2018-05-29T15:12:01Z</time>
      </trkpt>
      <trkpt lat="43.83915" lon="6.49267">
        <ele>738</ele>
        <time>2018-05-29T15:12:02Z</time>
      </trkpt>
      <trkpt lat="43.83914" lon="6.49266">
        <ele>738</ele>
        <time>2018-05-29T15:12:03Z</time>
      </trkpt>
      <trkpt lat="43.83913" lon="6.49265">
        <ele>738</ele>
        <time>2018-05-29T15:12:04Z</time>
      </trkpt>
      <trkpt lat="43.83911" lon="6.49264">
        <ele>738</ele>
        <time>2018-05-29T15:12:05Z</time>
      </trkpt>
      <trkpt lat="43.8391" lon="6.49263">
        <ele>738</ele>
        <time>2018-05-29T15:12:06Z</time>
      </trkpt>
      <trkpt lat="43.83909" lon="6.49262">
        <ele>739</ele>
        <time>2018-05-29T15:12:07Z</time>
      </trkpt>
      <trkpt lat="43.83907" lon="6.49261">
        <ele>739</ele>
        <time>2018-05-29T15:12:08Z</time>
      </trkpt>
      <trkpt lat="43.83906" lon="6.49261">
        <ele>739</ele>
        <time>2018-05-29T15:12:09Z</time>
      </trkpt>
      <trkpt lat="43.83904" lon="6.4926">
        <ele>739</ele>
        <time>2018-05-29T15:12:10Z</time>
      </trkpt>
      <trkpt lat="43.83903" lon="6.49259">
        <ele>739</ele>
        <time>2018-05-29T15:12:11Z</time>
      </trkpt>
      <trkpt lat="43.83901" lon="6.49259">
        <ele>739</ele>
        <time>2018-05-29T15:12:12Z</time>
      </trkpt>
      <trkpt lat="43.839" lon="6.49258">
        <ele>739</ele>
        <time>2018-05-29T15:12:13Z</time>
      </trkpt>
      <trkpt lat="43.83898" lon="6.49258">
        <ele>739</ele>
        <time>2018-05-29T15:12:14Z</time>
      </trkpt>
      <trkpt lat="43.83897" lon="6.49257">
        <ele>739</ele>
        <time>2018-05-29T15:12:15Z</time>
      </trkpt>
      <trkpt lat="43.83878" lon="6.4924">
        <ele>742</ele>
        <time>2018-05-29T15:12:31Z</time>
      </trkpt>
      <trkpt lat="43.83861" lon="6.49228">
        <ele>743</ele>
        <time>2018-05-29T15:12:44Z</time>
      </trkpt>
      <trkpt lat="43.83851" lon="6.49221">
        <ele>744</ele>
        <time>2018-05-29T15:12:51Z</time>
      </trkpt>
      <trkpt lat="43.8385" lon="6.4922">
        <ele>744</ele>
        <time>2018-05-29T15:12:52Z</time>
      </trkpt>
      <trkpt lat="43.83849" lon="6.49218">
        <ele>744</ele>
        <time>2018-05-29T15:12:53Z</time>
      </trkpt>
      <trkpt lat="43.83848" lon="6.49216">
        <ele>744</ele>
        <time>2018-05-29T15:12:54Z</time>
      </trkpt>
      <trkpt lat="43.83847" lon="6.49215">
        <ele>745</ele>
        <time>2018-05-29T15:12:55Z</time>
      </trkpt>
      <trkpt lat="43.83846" lon="6.49215">
        <ele>744</ele>
        <time>2018-05-29T15:12:56Z</time>
      </trkpt>
      <trkpt lat="43.83845" lon="6.49215">
        <ele>744</ele>
        <time>2018-05-29T15:12:57Z</time>
      </trkpt>
      <trkpt lat="43.83844" lon="6.49214">
        <ele>745</ele>
        <time>2018-05-29T15:12:58Z</time>
      </trkpt>
      <trkpt lat="43.83843" lon="6.49213">
        <ele>746</ele>
        <time>2018-05-29T15:12:59Z</time>
      </trkpt>
      <trkpt lat="43.83842" lon="6.49211">
        <ele>746</ele>
        <time>2018-05-29T15:13:00Z</time>
      </trkpt>
      <trkpt lat="43.83841" lon="6.4921">
        <ele>747</ele>
        <time>2018-05-29T15:13:01Z</time>
      </trkpt>
      <trkpt lat="43.8382" lon="6.49196">
        <ele>752</ele>
        <time>2018-05-29T15:13:15Z</time>
      </trkpt>
      <trkpt lat="43.838" lon="6.49177">
        <ele>754</ele>
        <time>2018-05-29T15:13:31Z</time>
      </trkpt>
      <trkpt lat="43.83788" lon="6.49151">
        <ele>757</ele>
        <time>2018-05-29T15:13:47Z</time>
      </trkpt>
      <trkpt lat="43.83779" lon="6.49125">
        <ele>758</ele>
        <time>2018-05-29T15:14:02Z</time>
      </trkpt>
      <trkpt lat="43.83778" lon="6.49106">
        <ele>758</ele>
        <time>2018-05-29T15:14:12Z</time>
      </trkpt>
      <trkpt lat="43.83778" lon="6.49102">
        <ele>759</ele>
        <time>2018-05-29T15:14:14Z</time>
      </trkpt>
      <trkpt lat="43.83779" lon="6.49099">
        <ele>759</ele>
        <time>2018-05-29T15:14:15Z</time>
      </trkpt>
      <trkpt lat="43.8378" lon="6.49098">
        <ele>759</ele>
        <time>2018-05-29T15:14:16Z</time>
      </trkpt>
      <trkpt lat="43.83787" lon="6.49079">
        <ele>760</ele>
        <time>2018-05-29T15:14:27Z</time>
      </trkpt>
      <trkpt lat="43.83796" lon="6.49051">
        <ele>762</ele>
        <time>2018-05-29T15:14:43Z</time>
      </trkpt>
      <trkpt lat="43.838" lon="6.49035">
        <ele>763</ele>
        <time>2018-05-29T15:14:56Z</time>
      </trkpt>
      <trkpt lat="43.838" lon="6.49034">
        <ele>763</ele>
        <time>2018-05-29T15:14:59Z</time>
      </trkpt>
      <trkpt lat="43.838" lon="6.49032">
        <ele>763</ele>
        <time>2018-05-29T15:15:00Z</time>
      </trkpt>
      <trkpt lat="43.83809" lon="6.49011">
        <ele>762</ele>
        <time>2018-05-29T15:15:07Z</time>
      </trkpt>
      <trkpt lat="43.83812" lon="6.49007">
        <ele>761</ele>
        <time>2018-05-29T15:15:08Z</time>
      </trkpt>
      <trkpt lat="43.83815" lon="6.49002">
        <ele>761</ele>
        <time>2018-05-29T15:15:09Z</time>
      </trkpt>
      <trkpt lat="43.8382" lon="6.48996">
        <ele>761</ele>
        <time>2018-05-29T15:15:10Z</time>
      </trkpt>
      <trkpt lat="43.83824" lon="6.48993">
        <ele>761</ele>
        <time>2018-05-29T15:15:11Z</time>
      </trkpt>
      <trkpt lat="43.83831" lon="6.48987">
        <ele>761</ele>
        <time>2018-05-29T15:15:12Z</time>
      </trkpt>
      <trkpt lat="43.83843" lon="6.48977">
        <ele>761</ele>
        <time>2018-05-29T15:15:14Z</time>
      </trkpt>
      <trkpt lat="43.83848" lon="6.48969">
        <ele>761</ele>
        <time>2018-05-29T15:15:15Z</time>
      </trkpt>
      <trkpt lat="43.83851" lon="6.48961">
        <ele>761</ele>
        <time>2018-05-29T15:15:16Z</time>
      </trkpt>
      <trkpt lat="43.83854" lon="6.48953">
        <ele>760</ele>
        <time>2018-05-29T15:15:17Z</time>
      </trkpt>
      <trkpt lat="43.83858" lon="6.48946">
        <ele>760</ele>
        <time>2018-05-29T15:15:18Z</time>
      </trkpt>
      <trkpt lat="43.83864" lon="6.48934">
        <ele>760</ele>
        <time>2018-05-29T15:15:20Z</time>
      </trkpt>
      <trkpt lat="43.83868" lon="6.4893">
        <ele>760</ele>
        <time>2018-05-29T15:15:21Z</time>
      </trkpt>
      <trkpt lat="43.83871" lon="6.48927">
        <ele>760</ele>
        <time>2018-05-29T15:15:22Z</time>
      </trkpt>
      <trkpt lat="43.83874" lon="6.48925">
        <ele>760</ele>
        <time>2018-05-29T15:15:23Z</time>
      </trkpt>
      <trkpt lat="43.83876" lon="6.48924">
        <ele>760</ele>
        <time>2018-05-29T15:15:24Z</time>
      </trkpt>
      <trkpt lat="43.83877" lon="6.48924">
        <ele>760</ele>
        <time>2018-05-29T15:15:25Z</time>
      </trkpt>
      <trkpt lat="43.83878" lon="6.48923">
        <ele>760</ele>
        <time>2018-05-29T15:15:26Z</time>
      </trkpt>
      <trkpt lat="43.8388" lon="6.48922">
        <ele>760</ele>
        <time>2018-05-29T15:15:27Z</time>
      </trkpt>
      <trkpt lat="43.83882" lon="6.48922">
        <ele>760</ele>
        <time>2018-05-29T15:15:28Z</time>
      </trkpt>
      <trkpt lat="43.83883" lon="6.48922">
        <ele>760</ele>
        <time>2018-05-29T15:15:29Z</time>
      </trkpt>
      <trkpt lat="43.83884" lon="6.48922">
        <ele>761</ele>
        <time>2018-05-29T15:15:30Z</time>
      </trkpt>
      <trkpt lat="43.83886" lon="6.48921">
        <ele>761</ele>
        <time>2018-05-29T15:15:31Z</time>
      </trkpt>
      <trkpt lat="43.83888" lon="6.48921">
        <ele>761</ele>
        <time>2018-05-29T15:15:32Z</time>
      </trkpt>
      <trkpt lat="43.83916" lon="6.48914">
        <ele>765</ele>
        <time>2018-05-29T15:15:49Z</time>
      </trkpt>
      <trkpt lat="43.83939" lon="6.48907">
        <ele>770</ele>
        <time>2018-05-29T15:16:05Z</time>
      </trkpt>
      <trkpt lat="43.83958" lon="6.48885">
        <ele>773</ele>
        <time>2018-05-29T15:16:22Z</time>
      </trkpt>
      <trkpt lat="43.83966" lon="6.48877">
        <ele>775</ele>
        <time>2018-05-29T15:16:29Z</time>
      </trkpt>
      <trkpt lat="43.83988" lon="6.48858">
        <ele>777</ele>
        <time>2018-05-29T15:16:46Z</time>
      </trkpt>
      <trkpt lat="43.84009" lon="6.4884">
        <ele>782</ele>
        <time>2018-05-29T15:17:01Z</time>
      </trkpt>
      <trkpt lat="43.84031" lon="6.48822">
        <ele>784</ele>
        <time>2018-05-29T15:17:17Z</time>
      </trkpt>
      <trkpt lat="43.84052" lon="6.488">
        <ele>782</ele>
        <time>2018-05-29T15:17:33Z</time>
      </trkpt>
      <trkpt lat="43.84052" lon="6.48783">
        <ele>783</ele>
        <time>2018-05-29T15:17:41Z</time>
      </trkpt>
      <trkpt lat="43.84051" lon="6.48782">
        <ele>783</ele>
        <time>2018-05-29T15:17:42Z</time>
      </trkpt>
      <trkpt lat="43.8405" lon="6.48781">
        <ele>783</ele>
        <time>2018-05-29T15:17:43Z</time>
      </trkpt>
      <trkpt lat="43.84049" lon="6.48781">
        <ele>783</ele>
        <time>2018-05-29T15:17:44Z</time>
      </trkpt>
      <trkpt lat="43.84048" lon="6.48781">
        <ele>783</ele>
        <time>2018-05-29T15:17:45Z</time>
      </trkpt>
      <trkpt lat="43.84033" lon="6.48783">
        <ele>782</ele>
        <time>2018-05-29T15:17:55Z</time>
      </trkpt>
      <trkpt lat="43.84032" lon="6.48782">
        <ele>782</ele>
        <time>2018-05-29T15:17:56Z</time>
      </trkpt>
      <trkpt lat="43.8403" lon="6.4878">
        <ele>782</ele>
        <time>2018-05-29T15:17:58Z</time>
      </trkpt>
      <trkpt lat="43.84029" lon="6.48778">
        <ele>783</ele>
        <time>2018-05-29T15:17:59Z</time>
      </trkpt>
      <trkpt lat="43.84029" lon="6.48768">
        <ele>784</ele>
        <time>2018-05-29T15:18:04Z</time>
      </trkpt>
      <trkpt lat="43.8403" lon="6.48767">
        <ele>784</ele>
        <time>2018-05-29T15:18:05Z</time>
      </trkpt>
      <trkpt lat="43.84031" lon="6.48766">
        <ele>785</ele>
        <time>2018-05-29T15:18:06Z</time>
      </trkpt>
      <trkpt lat="43.84032" lon="6.48765">
        <ele>785</ele>
        <time>2018-05-29T15:18:07Z</time>
      </trkpt>
      <trkpt lat="43.84033" lon="6.48764">
        <ele>785</ele>
        <time>2018-05-29T15:18:08Z</time>
      </trkpt>
      <trkpt lat="43.84034" lon="6.48764">
        <ele>785</ele>
        <time>2018-05-29T15:18:09Z</time>
      </trkpt>
      <trkpt lat="43.84035" lon="6.48763">
        <ele>785</ele>
        <time>2018-05-29T15:18:10Z</time>
      </trkpt>
      <trkpt lat="43.84036" lon="6.48763">
        <ele>785</ele>
        <time>2018-05-29T15:18:11Z</time>
      </trkpt>
      <trkpt lat="43.84057" lon="6.48748">
        <ele>790</ele>
        <time>2018-05-29T15:18:27Z</time>
      </trkpt>
      <trkpt lat="43.84072" lon="6.48727">
        <ele>796</ele>
        <time>2018-05-29T15:18:42Z</time>
      </trkpt>
      <trkpt lat="43.84078" lon="6.48699">
        <ele>799</ele>
        <time>2018-05-29T15:18:57Z</time>
      </trkpt>
      <trkpt lat="43.84091" lon="6.4867">
        <ele>800</ele>
        <time>2018-05-29T15:19:14Z</time>
      </trkpt>
      <trkpt lat="43.84093" lon="6.48665">
        <ele>801</ele>
        <time>2018-05-29T15:19:17Z</time>
      </trkpt>
      <trkpt lat="43.84094" lon="6.48664">
        <ele>801</ele>
        <time>2018-05-29T15:19:18Z</time>
      </trkpt>
      <trkpt lat="43.84095" lon="6.48664">
        <ele>802</ele>
        <time>2018-05-29T15:19:19Z</time>
      </trkpt>
      <trkpt lat="43.84096" lon="6.48663">
        <ele>802</ele>
        <time>2018-05-29T15:19:20Z</time>
      </trkpt>
      <trkpt lat="43.84097" lon="6.48661">
        <ele>802</ele>
        <time>2018-05-29T15:19:21Z</time>
      </trkpt>
      <trkpt lat="43.84098" lon="6.48659">
        <ele>803</ele>
        <time>2018-05-29T15:19:22Z</time>
      </trkpt>
      <trkpt lat="43.84098" lon="6.48657">
        <ele>803</ele>
        <time>2018-05-29T15:19:23Z</time>
      </trkpt>
      <trkpt lat="43.84099" lon="6.48656">
        <ele>803</ele>
        <time>2018-05-29T15:19:24Z</time>
      </trkpt>
      <trkpt lat="43.841" lon="6.48654">
        <ele>804</ele>
        <time>2018-05-29T15:19:25Z</time>
      </trkpt>
      <trkpt lat="43.84101" lon="6.48653">
        <ele>804</ele>
        <time>2018-05-29T15:19:26Z</time>
      </trkpt>
      <trkpt lat="43.84112" lon="6.48637">
        <ele>807</ele>
        <time>2018-05-29T15:19:37Z</time>
      </trkpt>
      <trkpt lat="43.84113" lon="6.48637">
        <ele>808</ele>
        <time>2018-05-29T15:19:38Z</time>
      </trkpt>
      <trkpt lat="43.84114" lon="6.48635">
        <ele>808</ele>
        <time>2018-05-29T15:19:39Z</time>
      </trkpt>
      <trkpt lat="43.84115" lon="6.48634">
        <ele>808</ele>
        <time>2018-05-29T15:19:40Z</time>
      </trkpt>
      <trkpt lat="43.84116" lon="6.48632">
        <ele>808</ele>
        <time>2018-05-29T15:19:41Z</time>
      </trkpt>
      <trkpt lat="43.84117" lon="6.48631">
        <ele>809</ele>
        <time>2018-05-29T15:19:42Z</time>
      </trkpt>
      <trkpt lat="43.84117" lon="6.4863">
        <ele>809</ele>
        <time>2018-05-29T15:19:43Z</time>
      </trkpt>
      <trkpt lat="43.84119" lon="6.48629">
        <ele>809</ele>
        <time>2018-05-29T15:19:44Z</time>
      </trkpt>
      <trkpt lat="43.8412" lon="6.48629">
        <ele>809</ele>
        <time>2018-05-29T15:19:45Z</time>
      </trkpt>
      <trkpt lat="43.84127" lon="6.48625">
        <ele>811</ele>
        <time>2018-05-29T15:19:52Z</time>
      </trkpt>
      <trkpt lat="43.84128" lon="6.48627">
        <ele>811</ele>
        <time>2018-05-29T15:19:53Z</time>
      </trkpt>
      <trkpt lat="43.84129" lon="6.48628">
        <ele>812</ele>
        <time>2018-05-29T15:19:55Z</time>
      </trkpt>
      <trkpt lat="43.84131" lon="6.48631">
        <ele>812</ele>
        <time>2018-05-29T15:19:57Z</time>
      </trkpt>
      <trkpt lat="43.84132" lon="6.48634">
        <ele>812</ele>
        <time>2018-05-29T15:19:58Z</time>
      </trkpt>
      <trkpt lat="43.8414" lon="6.48664">
        <ele>814</ele>
        <time>2018-05-29T15:20:14Z</time>
      </trkpt>
      <trkpt lat="43.84156" lon="6.48689">
        <ele>815</ele>
        <time>2018-05-29T15:20:29Z</time>
      </trkpt>
      <trkpt lat="43.84184" lon="6.48701">
        <ele>817</ele>
        <time>2018-05-29T15:20:46Z</time>
      </trkpt>
      <trkpt lat="43.84213" lon="6.48705">
        <ele>818</ele>
        <time>2018-05-29T15:21:04Z</time>
      </trkpt>
      <trkpt lat="43.84236" lon="6.48699">
        <ele>820</ele>
        <time>2018-05-29T15:21:18Z</time>
      </trkpt>
      <trkpt lat="43.8426" lon="6.48691">
        <ele>822</ele>
        <time>2018-05-29T15:21:33Z</time>
      </trkpt>
      <trkpt lat="43.84289" lon="6.48684">
        <ele>823</ele>
        <time>2018-05-29T15:21:49Z</time>
      </trkpt>
      <trkpt lat="43.84314" lon="6.48673">
        <ele>824</ele>
        <time>2018-05-29T15:22:03Z</time>
      </trkpt>
      <trkpt lat="43.84343" lon="6.48672">
        <ele>824</ele>
        <time>2018-05-29T15:22:16Z</time>
      </trkpt>
      <trkpt lat="43.84354" lon="6.48673">
        <ele>823</ele>
        <time>2018-05-29T15:22:19Z</time>
      </trkpt>
      <trkpt lat="43.84359" lon="6.48672">
        <ele>823</ele>
        <time>2018-05-29T15:22:20Z</time>
      </trkpt>
      <trkpt lat="43.84363" lon="6.48669">
        <ele>824</ele>
        <time>2018-05-29T15:22:21Z</time>
      </trkpt>
      <trkpt lat="43.84367" lon="6.48666">
        <ele>825</ele>
        <time>2018-05-29T15:22:22Z</time>
      </trkpt>
      <trkpt lat="43.84373" lon="6.48663">
        <ele>826</ele>
        <time>2018-05-29T15:22:23Z</time>
      </trkpt>
      <trkpt lat="43.84379" lon="6.48663">
        <ele>826</ele>
        <time>2018-05-29T15:22:24Z</time>
      </trkpt>
      <trkpt lat="43.84385" lon="6.48667">
        <ele>826</ele>
        <time>2018-05-29T15:22:25Z</time>
      </trkpt>
      <trkpt lat="43.84389" lon="6.48673">
        <ele>827</ele>
        <time>2018-05-29T15:22:26Z</time>
      </trkpt>
      <trkpt lat="43.84391" lon="6.48678">
        <ele>827</ele>
        <time>2018-05-29T15:22:27Z</time>
      </trkpt>
      <trkpt lat="43.84393" lon="6.48682">
        <ele>827</ele>
        <time>2018-05-29T15:22:28Z</time>
      </trkpt>
      <trkpt lat="43.84393" lon="6.48686">
        <ele>827</ele>
        <time>2018-05-29T15:22:29Z</time>
      </trkpt>
      <trkpt lat="43.84393" lon="6.48689">
        <ele>827</ele>
        <time>2018-05-29T15:22:30Z</time>
      </trkpt>
      <trkpt lat="43.84393" lon="6.48691">
        <ele>827</ele>
        <time>2018-05-29T15:22:31Z</time>
      </trkpt>
      <trkpt lat="43.84393" lon="6.48694">
        <ele>827</ele>
        <time>2018-05-29T15:22:32Z</time>
      </trkpt>
      <trkpt lat="43.84393" lon="6.48696">
        <ele>827</ele>
        <time>2018-05-29T15:22:33Z</time>
      </trkpt>
      <trkpt lat="43.84392" lon="6.48698">
        <ele>827</ele>
        <time>2018-05-29T15:22:34Z</time>
      </trkpt>
      <trkpt lat="43.84392" lon="6.48701">
        <ele>827</ele>
        <time>2018-05-29T15:22:35Z</time>
      </trkpt>
      <trkpt lat="43.84391" lon="6.48703">
        <ele>827</ele>
        <time>2018-05-29T15:22:36Z</time>
      </trkpt>
      <trkpt lat="43.84382" lon="6.48749">
        <ele>830</ele>
        <time>2018-05-29T15:22:52Z</time>
      </trkpt>
      <trkpt lat="43.8439" lon="6.48792">
        <ele>834</ele>
        <time>2018-05-29T15:23:09Z</time>
      </trkpt>
      <trkpt lat="43.84391" lon="6.48833">
        <ele>836</ele>
        <time>2018-05-29T15:23:25Z</time>
      </trkpt>
      <trkpt lat="43.84379" lon="6.48867">
        <ele>834</ele>
        <time>2018-05-29T15:23:36Z</time>
      </trkpt>
      <trkpt lat="43.84386" lon="6.4889">
        <ele>836</ele>
        <time>2018-05-29T15:23:47Z</time>
      </trkpt>
      <trkpt lat="43.84386" lon="6.48896">
        <ele>837</ele>
        <time>2018-05-29T15:23:51Z</time>
      </trkpt>
      <trkpt lat="43.84387" lon="6.48897">
        <ele>837</ele>
        <time>2018-05-29T15:23:52Z</time>
      </trkpt>
      <trkpt lat="43.84388" lon="6.48899">
        <ele>837</ele>
        <time>2018-05-29T15:23:53Z</time>
      </trkpt>
      <trkpt lat="43.84388" lon="6.48901">
        <ele>838</ele>
        <time>2018-05-29T15:23:54Z</time>
      </trkpt>
      <trkpt lat="43.84389" lon="6.48903">
        <ele>838</ele>
        <time>2018-05-29T15:23:55Z</time>
      </trkpt>
      <trkpt lat="43.84389" lon="6.48905">
        <ele>838</ele>
        <time>2018-05-29T15:23:56Z</time>
      </trkpt>
      <trkpt lat="43.8439" lon="6.48907">
        <ele>838</ele>
        <time>2018-05-29T15:23:57Z</time>
      </trkpt>
      <trkpt lat="43.8439" lon="6.48908">
        <ele>838</ele>
        <time>2018-05-29T15:23:58Z</time>
      </trkpt>
      <trkpt lat="43.84391" lon="6.48912">
        <ele>839</ele>
        <time>2018-05-29T15:24:00Z</time>
      </trkpt>
      <trkpt lat="43.8439" lon="6.48914">
        <ele>839</ele>
        <time>2018-05-29T15:24:01Z</time>
      </trkpt>
      <trkpt lat="43.8439" lon="6.48915">
        <ele>839</ele>
        <time>2018-05-29T15:24:02Z</time>
      </trkpt>
      <trkpt lat="43.8439" lon="6.48917">
        <ele>839</ele>
        <time>2018-05-29T15:24:03Z</time>
      </trkpt>
      <trkpt lat="43.8439" lon="6.48919">
        <ele>839</ele>
        <time>2018-05-29T15:24:04Z</time>
      </trkpt>
      <trkpt lat="43.8439" lon="6.48921">
        <ele>839</ele>
        <time>2018-05-29T15:24:05Z</time>
      </trkpt>
      <trkpt lat="43.84386" lon="6.48952">
        <ele>841</ele>
        <time>2018-05-29T15:24:20Z</time>
      </trkpt>
      <trkpt lat="43.84385" lon="6.48967">
        <ele>843</ele>
        <time>2018-05-29T15:24:27Z</time>
      </trkpt>
      <trkpt lat="43.84378" lon="6.48993">
        <ele>846</ele>
        <time>2018-05-29T15:24:42Z</time>
      </trkpt>
      <trkpt lat="43.84376" lon="6.49015">
        <ele>849</ele>
        <time>2018-05-29T15:24:57Z</time>
      </trkpt>
      <trkpt lat="43.84383" lon="6.49036">
        <ele>854</ele>
        <time>2018-05-29T15:25:13Z</time>
      </trkpt>
      <trkpt lat="43.84393" lon="6.4905">
        <ele>857</ele>
        <time>2018-05-29T15:25:28Z</time>
      </trkpt>
      <trkpt lat="43.84394" lon="6.49052">
        <ele>857</ele>
        <time>2018-05-29T15:25:30Z</time>
      </trkpt>
      <trkpt lat="43.84395" lon="6.49053">
        <ele>857</ele>
        <time>2018-05-29T15:25:31Z</time>
      </trkpt>
      <trkpt lat="43.84408" lon="6.49063">
        <ele>859</ele>
        <time>2018-05-29T15:25:46Z</time>
      </trkpt>
      <trkpt lat="43.8441" lon="6.49065">
        <ele>859</ele>
        <time>2018-05-29T15:25:48Z</time>
      </trkpt>
      <trkpt lat="43.84411" lon="6.49066">
        <ele>859</ele>
        <time>2018-05-29T15:25:49Z</time>
      </trkpt>
      <trkpt lat="43.84412" lon="6.49068">
        <ele>860</ele>
        <time>2018-05-29T15:25:50Z</time>
      </trkpt>
      <trkpt lat="43.84413" lon="6.49069">
        <ele>860</ele>
        <time>2018-05-29T15:25:52Z</time>
      </trkpt>
      <trkpt lat="43.84418" lon="6.49072">
        <ele>860</ele>
        <time>2018-05-29T15:25:56Z</time>
      </trkpt>
      <trkpt lat="43.84418" lon="6.49073">
        <ele>860</ele>
        <time>2018-05-29T15:25:57Z</time>
      </trkpt>
      <trkpt lat="43.84419" lon="6.49075">
        <ele>860</ele>
        <time>2018-05-29T15:25:58Z</time>
      </trkpt>
      <trkpt lat="43.84427" lon="6.49084">
        <ele>860</ele>
        <time>2018-05-29T15:26:07Z</time>
      </trkpt>
      <trkpt lat="43.84437" lon="6.49089">
        <ele>860</ele>
        <time>2018-05-29T15:26:15Z</time>
      </trkpt>
      <trkpt lat="43.84439" lon="6.49089">
        <ele>860</ele>
        <time>2018-05-29T15:26:16Z</time>
      </trkpt>
      <trkpt lat="43.84442" lon="6.49089">
        <ele>860</ele>
        <time>2018-05-29T15:26:17Z</time>
      </trkpt>
      <trkpt lat="43.84481" lon="6.49098">
        <ele>859</ele>
        <time>2018-05-29T15:26:33Z</time>
      </trkpt>
      <trkpt lat="43.84511" lon="6.49115">
        <ele>860</ele>
        <time>2018-05-29T15:26:41Z</time>
      </trkpt>
      <trkpt lat="43.84531" lon="6.49142">
        <ele>858</ele>
        <time>2018-05-29T15:26:52Z</time>
      </trkpt>
      <trkpt lat="43.84533" lon="6.49156">
        <ele>856</ele>
        <time>2018-05-29T15:27:03Z</time>
      </trkpt>
      <trkpt lat="43.84534" lon="6.49155">
        <ele>857</ele>
        <time>2018-05-29T15:27:28Z</time>
      </trkpt>
      <trkpt lat="43.84534" lon="6.49156">
        <ele>856</ele>
        <time>2018-05-29T15:27:57Z</time>
      </trkpt>
      <trkpt lat="43.84536" lon="6.49157">
        <ele>857</ele>
        <time>2018-05-29T15:28:14Z</time>
      </trkpt>
      <trkpt lat="43.84536" lon="6.4916">
        <ele>856</ele>
        <time>2018-05-29T15:28:56Z</time>
      </trkpt>
      <trkpt lat="43.84536" lon="6.4916">
        <ele>856</ele>
        <time>2018-05-29T15:29:42Z</time>
      </trkpt>
      <trkpt lat="43.84536" lon="6.49159">
        <ele>857</ele>
        <time>2018-05-29T15:30:12Z</time>
      </trkpt>
      <trkpt lat="43.84537" lon="6.49156">
        <ele>857</ele>
        <time>2018-05-29T15:30:50Z</time>
      </trkpt>
      <trkpt lat="43.84538" lon="6.49157">
        <ele>858</ele>
        <time>2018-05-29T15:31:32Z</time>
      </trkpt>
      <trkpt lat="43.84537" lon="6.49157">
        <ele>857</ele>
        <time>2018-05-29T15:32:15Z</time>
      </trkpt>
      <trkpt lat="43.84535" lon="6.49155">
        <ele>857</ele>
        <time>2018-05-29T15:32:54Z</time>
      </trkpt>
      <trkpt lat="43.84538" lon="6.49157">
        <ele>858</ele>
        <time>2018-05-29T15:33:33Z</time>
      </trkpt>
      <trkpt lat="43.84537" lon="6.49156">
        <ele>857</ele>
        <time>2018-05-29T15:34:04Z</time>
      </trkpt>
      <trkpt lat="43.84536" lon="6.49156">
        <ele>857</ele>
        <time>2018-05-29T15:34:43Z</time>
      </trkpt>
      <trkpt lat="43.84537" lon="6.49156">
        <ele>858</ele>
        <time>2018-05-29T15:35:34Z</time>
      </trkpt>
      <trkpt lat="43.84537" lon="6.49159">
        <ele>857</ele>
        <time>2018-05-29T15:36:08Z</time>
      </trkpt>
      <trkpt lat="43.84537" lon="6.4916">
        <ele>857</ele>
        <time>2018-05-29T15:36:35Z</time>
      </trkpt>
      <trkpt lat="43.84536" lon="6.49159">
        <ele>857</ele>
        <time>2018-05-29T15:37:12Z</time>
      </trkpt>
      <trkpt lat="43.84537" lon="6.49157">
        <ele>857</ele>
        <time>2018-05-29T15:37:44Z</time>
      </trkpt>
      <trkpt lat="43.84535" lon="6.49155">
        <ele>857</ele>
        <time>2018-05-29T15:38:14Z</time>
      </trkpt>
      <trkpt lat="43.84534" lon="6.49159">
        <ele>856</ele>
        <time>2018-05-29T15:38:48Z</time>
      </trkpt>
      <trkpt lat="43.84536" lon="6.49158">
        <ele>857</ele>
        <time>2018-05-29T15:39:26Z</time>
      </trkpt>
      <trkpt lat="43.84535" lon="6.49158">
        <ele>857</ele>
        <time>2018-05-29T15:39:52Z</time>
      </trkpt>
      <trkpt lat="43.84537" lon="6.49157">
        <ele>857</ele>
        <time>2018-05-29T15:40:25Z</time>
      </trkpt>
      <trkpt lat="43.84537" lon="6.49163">
        <ele>856</ele>
        <time>2018-05-29T15:40:56Z</time>
      </trkpt>
      <trkpt lat="43.84542" lon="6.49175">
        <ele>856</ele>
        <time>2018-05-29T15:40:59Z</time>
      </trkpt>
      <trkpt lat="43.84544" lon="6.4918">
        <ele>856</ele>
        <time>2018-05-29T15:41:00Z</time>
      </trkpt>
      <trkpt lat="43.84554" lon="6.4922">
        <ele>854</ele>
        <time>2018-05-29T15:41:09Z</time>
      </trkpt>
      <trkpt lat="43.84557" lon="6.4924">
        <ele>854</ele>
        <time>2018-05-29T15:41:12Z</time>
      </trkpt>
      <trkpt lat="43.84557" lon="6.49246">
        <ele>853</ele>
        <time>2018-05-29T15:41:13Z</time>
      </trkpt>
      <trkpt lat="43.84552" lon="6.4927">
        <ele>849</ele>
        <time>2018-05-29T15:41:19Z</time>
      </trkpt>
      <trkpt lat="43.84553" lon="6.49273">
        <ele>849</ele>
        <time>2018-05-29T15:41:20Z</time>
      </trkpt>
      <trkpt lat="43.84554" lon="6.49275">
        <ele>849</ele>
        <time>2018-05-29T15:41:21Z</time>
      </trkpt>
      <trkpt lat="43.84556" lon="6.49277">
        <ele>849</ele>
        <time>2018-05-29T15:41:22Z</time>
      </trkpt>
      <trkpt lat="43.84558" lon="6.49279">
        <ele>850</ele>
        <time>2018-05-29T15:41:23Z</time>
      </trkpt>
      <trkpt lat="43.8456" lon="6.49281">
        <ele>850</ele>
        <time>2018-05-29T15:41:24Z</time>
      </trkpt>
      <trkpt lat="43.84563" lon="6.49285">
        <ele>850</ele>
        <time>2018-05-29T15:41:25Z</time>
      </trkpt>
      <trkpt lat="43.84566" lon="6.49289">
        <ele>851</ele>
        <time>2018-05-29T15:41:26Z</time>
      </trkpt>
      <trkpt lat="43.84579" lon="6.49328">
        <ele>847</ele>
        <time>2018-05-29T15:41:34Z</time>
      </trkpt>
      <trkpt lat="43.84577" lon="6.49335">
        <ele>846</ele>
        <time>2018-05-29T15:41:35Z</time>
      </trkpt>
      <trkpt lat="43.84575" lon="6.49341">
        <ele>844</ele>
        <time>2018-05-29T15:41:36Z</time>
      </trkpt>
      <trkpt lat="43.84573" lon="6.49349">
        <ele>842</ele>
        <time>2018-05-29T15:41:37Z</time>
      </trkpt>
      <trkpt lat="43.84572" lon="6.49357">
        <ele>841</ele>
        <time>2018-05-29T15:41:38Z</time>
      </trkpt>
      <trkpt lat="43.84571" lon="6.49365">
        <ele>839</ele>
        <time>2018-05-29T15:41:39Z</time>
      </trkpt>
      <trkpt lat="43.84572" lon="6.49373">
        <ele>838</ele>
        <time>2018-05-29T15:41:40Z</time>
      </trkpt>
      <trkpt lat="43.84572" lon="6.4938">
        <ele>838</ele>
        <time>2018-05-29T15:41:41Z</time>
      </trkpt>
      <trkpt lat="43.84572" lon="6.49385">
        <ele>837</ele>
        <time>2018-05-29T15:41:42Z</time>
      </trkpt>
      <trkpt lat="43.84569" lon="6.49413">
        <ele>833</ele>
        <time>2018-05-29T15:41:50Z</time>
      </trkpt>
      <trkpt lat="43.84568" lon="6.49436">
        <ele>831</ele>
        <time>2018-05-29T15:41:58Z</time>
      </trkpt>
      <trkpt lat="43.8457" lon="6.49466">
        <ele>828</ele>
        <time>2018-05-29T15:42:07Z</time>
      </trkpt>
      <trkpt lat="43.84571" lon="6.49471">
        <ele>828</ele>
        <time>2018-05-29T15:42:09Z</time>
      </trkpt>
      <trkpt lat="43.84572" lon="6.49475">
        <ele>827</ele>
        <time>2018-05-29T15:42:10Z</time>
      </trkpt>
      <trkpt lat="43.84573" lon="6.49478">
        <ele>827</ele>
        <time>2018-05-29T15:42:11Z</time>
      </trkpt>
      <trkpt lat="43.84574" lon="6.49482">
        <ele>826</ele>
        <time>2018-05-29T15:42:12Z</time>
      </trkpt>
      <trkpt lat="43.84575" lon="6.49487">
        <ele>826</ele>
        <time>2018-05-29T15:42:13Z</time>
      </trkpt>
      <trkpt lat="43.84577" lon="6.49491">
        <ele>825</ele>
        <time>2018-05-29T15:42:14Z</time>
      </trkpt>
      <trkpt lat="43.84579" lon="6.49495">
        <ele>824</ele>
        <time>2018-05-29T15:42:15Z</time>
      </trkpt>
      <trkpt lat="43.84581" lon="6.49501">
        <ele>823</ele>
        <time>2018-05-29T15:42:16Z</time>
      </trkpt>
      <trkpt lat="43.84583" lon="6.49506">
        <ele>822</ele>
        <time>2018-05-29T15:42:17Z</time>
      </trkpt>
      <trkpt lat="43.84592" lon="6.49531">
        <ele>819</ele>
        <time>2018-05-29T15:42:22Z</time>
      </trkpt>
      <trkpt lat="43.84595" lon="6.49536">
        <ele>819</ele>
        <time>2018-05-29T15:42:23Z</time>
      </trkpt>
      <trkpt lat="43.84597" lon="6.4954">
        <ele>819</ele>
        <time>2018-05-29T15:42:24Z</time>
      </trkpt>
      <trkpt lat="43.84601" lon="6.49546">
        <ele>818</ele>
        <time>2018-05-29T15:42:25Z</time>
      </trkpt>
      <trkpt lat="43.84604" lon="6.4955">
        <ele>818</ele>
        <time>2018-05-29T15:42:26Z</time>
      </trkpt>
      <trkpt lat="43.84607" lon="6.49554">
        <ele>817</ele>
        <time>2018-05-29T15:42:27Z</time>
      </trkpt>
      <trkpt lat="43.8461" lon="6.49559">
        <ele>816</ele>
        <time>2018-05-29T15:42:28Z</time>
      </trkpt>
      <trkpt lat="43.84614" lon="6.49562">
        <ele>815</ele>
        <time>2018-05-29T15:42:29Z</time>
      </trkpt>
      <trkpt lat="43.84616" lon="6.49565">
        <ele>815</ele>
        <time>2018-05-29T15:42:30Z</time>
      </trkpt>
      <trkpt lat="43.84618" lon="6.49568">
        <ele>814</ele>
        <time>2018-05-29T15:42:31Z</time>
      </trkpt>
      <trkpt lat="43.8462" lon="6.49571">
        <ele>813</ele>
        <time>2018-05-29T15:42:32Z</time>
      </trkpt>
      <trkpt lat="43.84622" lon="6.49574">
        <ele>813</ele>
        <time>2018-05-29T15:42:33Z</time>
      </trkpt>
      <trkpt lat="43.84623" lon="6.49577">
        <ele>812</ele>
        <time>2018-05-29T15:42:34Z</time>
      </trkpt>
      <trkpt lat="43.84624" lon="6.4958">
        <ele>812</ele>
        <time>2018-05-29T15:42:35Z</time>
      </trkpt>
      <trkpt lat="43.84624" lon="6.49583">
        <ele>811</ele>
        <time>2018-05-29T15:42:36Z</time>
      </trkpt>
      <trkpt lat="43.84626" lon="6.4959">
        <ele>811</ele>
        <time>2018-05-29T15:42:39Z</time>
      </trkpt>
      <trkpt lat="43.84626" lon="6.49592">
        <ele>811</ele>
        <time>2018-05-29T15:42:40Z</time>
      </trkpt>
      <trkpt lat="43.84626" lon="6.49594">
        <ele>811</ele>
        <time>2018-05-29T15:42:41Z</time>
      </trkpt>
      <trkpt lat="43.84626" lon="6.49596">
        <ele>811</ele>
        <time>2018-05-29T15:42:42Z</time>
      </trkpt>
      <trkpt lat="43.84626" lon="6.49598">
        <ele>811</ele>
        <time>2018-05-29T15:42:43Z</time>
      </trkpt>
      <trkpt lat="43.84626" lon="6.49605">
        <ele>811</ele>
        <time>2018-05-29T15:42:47Z</time>
      </trkpt>
      <trkpt lat="43.84627" lon="6.49608">
        <ele>811</ele>
        <time>2018-05-29T15:42:48Z</time>
      </trkpt>
      <trkpt lat="43.84644" lon="6.49628">
        <ele>804</ele>
        <time>2018-05-29T15:42:59Z</time>
      </trkpt>
      <trkpt lat="43.84646" lon="6.49631">
        <ele>804</ele>
        <time>2018-05-29T15:43:00Z</time>
      </trkpt>
      <trkpt lat="43.84647" lon="6.49633">
        <ele>803</ele>
        <time>2018-05-29T15:43:01Z</time>
      </trkpt>
      <trkpt lat="43.8465" lon="6.49636">
        <ele>802</ele>
        <time>2018-05-29T15:43:02Z</time>
      </trkpt>
      <trkpt lat="43.84651" lon="6.49639">
        <ele>801</ele>
        <time>2018-05-29T15:43:03Z</time>
      </trkpt>
      <trkpt lat="43.84653" lon="6.49642">
        <ele>800</ele>
        <time>2018-05-29T15:43:04Z</time>
      </trkpt>
      <trkpt lat="43.84654" lon="6.49645">
        <ele>799</ele>
        <time>2018-05-29T15:43:05Z</time>
      </trkpt>
      <trkpt lat="43.84655" lon="6.49648">
        <ele>799</ele>
        <time>2018-05-29T15:43:06Z</time>
      </trkpt>
      <trkpt lat="43.84656" lon="6.49651">
        <ele>798</ele>
        <time>2018-05-29T15:43:07Z</time>
      </trkpt>
      <trkpt lat="43.84669" lon="6.49681">
        <ele>792</ele>
        <time>2018-05-29T15:43:18Z</time>
      </trkpt>
      <trkpt lat="43.84684" lon="6.49701">
        <ele>786</ele>
        <time>2018-05-29T15:43:27Z</time>
      </trkpt>
      <trkpt lat="43.84697" lon="6.49723">
        <ele>781</ele>
        <time>2018-05-29T15:43:35Z</time>
      </trkpt>
      <trkpt lat="43.84705" lon="6.49742">
        <ele>777</ele>
        <time>2018-05-29T15:43:40Z</time>
      </trkpt>
      <trkpt lat="43.84705" lon="6.49745">
        <ele>776</ele>
        <time>2018-05-29T15:43:41Z</time>
      </trkpt>
      <trkpt lat="43.84706" lon="6.49749">
        <ele>776</ele>
        <time>2018-05-29T15:43:42Z</time>
      </trkpt>
      <trkpt lat="43.84719" lon="6.49793">
        <ele>767</ele>
        <time>2018-05-29T15:43:52Z</time>
      </trkpt>
      <trkpt lat="43.84723" lon="6.4981">
        <ele>764</ele>
        <time>2018-05-29T15:43:58Z</time>
      </trkpt>
      <trkpt lat="43.84727" lon="6.49817">
        <ele>764</ele>
        <time>2018-05-29T15:44:08Z</time>
      </trkpt>
      <trkpt lat="43.84729" lon="6.49823">
        <ele>765</ele>
        <time>2018-05-29T15:44:25Z</time>
      </trkpt>
      <trkpt lat="43.84736" lon="6.49818">
        <ele>766</ele>
        <time>2018-05-29T15:44:41Z</time>
      </trkpt>
      <trkpt lat="43.8474" lon="6.49816">
        <ele>767</ele>
        <time>2018-05-29T15:44:53Z</time>
      </trkpt>
      <trkpt lat="43.84744" lon="6.4983">
        <ele>767</ele>
        <time>2018-05-29T15:44:59Z</time>
      </trkpt>
      <trkpt lat="43.84743" lon="6.49832">
        <ele>767</ele>
        <time>2018-05-29T15:45:00Z</time>
      </trkpt>
      <trkpt lat="43.84743" lon="6.49833">
        <ele>767</ele>
        <time>2018-05-29T15:45:01Z</time>
      </trkpt>
      <trkpt lat="43.84743" lon="6.49835">
        <ele>767</ele>
        <time>2018-05-29T15:45:02Z</time>
      </trkpt>
      <trkpt lat="43.84742" lon="6.49851">
        <ele>765</ele>
        <time>2018-05-29T15:45:13Z</time>
      </trkpt>
      <trkpt lat="43.84745" lon="6.49865">
        <ele>763</ele>
        <time>2018-05-29T15:45:18Z</time>
      </trkpt>
      <trkpt lat="43.84745" lon="6.49868">
        <ele>763</ele>
        <time>2018-05-29T15:45:19Z</time>
      </trkpt>
      <trkpt lat="43.84762" lon="6.49901">
        <ele>757</ele>
        <time>2018-05-29T15:45:29Z</time>
      </trkpt>
      <trkpt lat="43.84762" lon="6.49929">
        <ele>751</ele>
        <time>2018-05-29T15:45:38Z</time>
      </trkpt>
      <trkpt lat="43.84768" lon="6.49959">
        <ele>747</ele>
        <time>2018-05-29T15:45:50Z</time>
      </trkpt>
      <trkpt lat="43.8477" lon="6.4997">
        <ele>746</ele>
        <time>2018-05-29T15:45:54Z</time>
      </trkpt>
      <trkpt lat="43.8477" lon="6.49991">
        <ele>744</ele>
        <time>2018-05-29T15:46:01Z</time>
      </trkpt>
      <trkpt lat="43.84768" lon="6.49993">
        <ele>743</ele>
        <time>2018-05-29T15:46:02Z</time>
      </trkpt>
      <trkpt lat="43.84766" lon="6.49994">
        <ele>742</ele>
        <time>2018-05-29T15:46:03Z</time>
      </trkpt>
      <trkpt lat="43.84763" lon="6.49996">
        <ele>741</ele>
        <time>2018-05-29T15:46:04Z</time>
      </trkpt>
      <trkpt lat="43.8476" lon="6.49997">
        <ele>741</ele>
        <time>2018-05-29T15:46:05Z</time>
      </trkpt>
      <trkpt lat="43.84757" lon="6.5">
        <ele>741</ele>
        <time>2018-05-29T15:46:06Z</time>
      </trkpt>
      <trkpt lat="43.84745" lon="6.50033">
        <ele>739</ele>
        <time>2018-05-29T15:46:15Z</time>
      </trkpt>
      <trkpt lat="43.84746" lon="6.5004">
        <ele>739</ele>
        <time>2018-05-29T15:46:16Z</time>
      </trkpt>
      <trkpt lat="43.84748" lon="6.50095">
        <ele>737</ele>
        <time>2018-05-29T15:46:24Z</time>
      </trkpt>
      <trkpt lat="43.84747" lon="6.50104">
        <ele>737</ele>
        <time>2018-05-29T15:46:25Z</time>
      </trkpt>
      <trkpt lat="43.84743" lon="6.50126">
        <ele>737</ele>
        <time>2018-05-29T15:46:28Z</time>
      </trkpt>
      <trkpt lat="43.84743" lon="6.50148">
        <ele>736</ele>
        <time>2018-05-29T15:46:31Z</time>
      </trkpt>
      <trkpt lat="43.84758" lon="6.50236">
        <ele>732</ele>
        <time>2018-05-29T15:46:45Z</time>
      </trkpt>
      <trkpt lat="43.84763" lon="6.50288">
        <ele>731</ele>
        <time>2018-05-29T15:46:57Z</time>
      </trkpt>
      <trkpt lat="43.84766" lon="6.50324">
        <ele>732</ele>
        <time>2018-05-29T15:47:05Z</time>
      </trkpt>
      <trkpt lat="43.84767" lon="6.5033">
        <ele>732</ele>
        <time>2018-05-29T15:47:06Z</time>
      </trkpt>
      <trkpt lat="43.84768" lon="6.50336">
        <ele>732</ele>
        <time>2018-05-29T15:47:07Z</time>
      </trkpt>
      <trkpt lat="43.84771" lon="6.50343">
        <ele>732</ele>
        <time>2018-05-29T15:47:08Z</time>
      </trkpt>
      <trkpt lat="43.84773" lon="6.50348">
        <ele>732</ele>
        <time>2018-05-29T15:47:09Z</time>
      </trkpt>
      <trkpt lat="43.84786" lon="6.50373">
        <ele>733</ele>
        <time>2018-05-29T15:47:14Z</time>
      </trkpt>
      <trkpt lat="43.84789" lon="6.50377">
        <ele>733</ele>
        <time>2018-05-29T15:47:15Z</time>
      </trkpt>
      <trkpt lat="43.84801" lon="6.50394">
        <ele>735</ele>
        <time>2018-05-29T15:47:22Z</time>
      </trkpt>
      <trkpt lat="43.848" lon="6.50448">
        <ele>738</ele>
        <time>2018-05-29T15:47:36Z</time>
      </trkpt>
      <trkpt lat="43.848" lon="6.50537">
        <ele>738</ele>
        <time>2018-05-29T15:47:51Z</time>
      </trkpt>
      <trkpt lat="43.84805" lon="6.50582">
        <ele>737</ele>
        <time>2018-05-29T15:47:57Z</time>
      </trkpt>
      <trkpt lat="43.84806" lon="6.5059">
        <ele>737</ele>
        <time>2018-05-29T15:47:58Z</time>
      </trkpt>
      <trkpt lat="43.84814" lon="6.50636">
        <ele>737</ele>
        <time>2018-05-29T15:48:04Z</time>
      </trkpt>
      <trkpt lat="43.84823" lon="6.50751">
        <ele>736</ele>
        <time>2018-05-29T15:48:20Z</time>
      </trkpt>
      <trkpt lat="43.84825" lon="6.50768">
        <ele>736</ele>
        <time>2018-05-29T15:48:23Z</time>
      </trkpt>
      <trkpt lat="43.84825" lon="6.50842">
        <ele>736</ele>
        <time>2018-05-29T15:48:37Z</time>
      </trkpt>
      <trkpt lat="43.8482" lon="6.50901">
        <ele>735</ele>
        <time>2018-05-29T15:48:49Z</time>
      </trkpt>
      <trkpt lat="43.84816" lon="6.50956">
        <ele>734</ele>
        <time>2018-05-29T15:48:59Z</time>
      </trkpt>
      <trkpt lat="43.84816" lon="6.50962">
        <ele>734</ele>
        <time>2018-05-29T15:49:00Z</time>
      </trkpt>
      <trkpt lat="43.84816" lon="6.50968">
        <ele>734</ele>
        <time>2018-05-29T15:49:01Z</time>
      </trkpt>
      <trkpt lat="43.84816" lon="6.50973">
        <ele>734</ele>
        <time>2018-05-29T15:49:02Z</time>
      </trkpt>
      <trkpt lat="43.84816" lon="6.50979">
        <ele>734</ele>
        <time>2018-05-29T15:49:03Z</time>
      </trkpt>
      <trkpt lat="43.84815" lon="6.50985">
        <ele>734</ele>
        <time>2018-05-29T15:49:04Z</time>
      </trkpt>
      <trkpt lat="43.84815" lon="6.5099">
        <ele>734</ele>
        <time>2018-05-29T15:49:05Z</time>
      </trkpt>
      <trkpt lat="43.84812" lon="6.51062">
        <ele>734</ele>
        <time>2018-05-29T15:49:18Z</time>
      </trkpt>
      <trkpt lat="43.84811" lon="6.51068">
        <ele>734</ele>
        <time>2018-05-29T15:49:20Z</time>
      </trkpt>
      <trkpt lat="43.84808" lon="6.51076">
        <ele>734</ele>
        <time>2018-05-29T15:49:21Z</time>
      </trkpt>
      <trkpt lat="43.84806" lon="6.51081">
        <ele>734</ele>
        <time>2018-05-29T15:49:22Z</time>
      </trkpt>
      <trkpt lat="43.84804" lon="6.51086">
        <ele>734</ele>
        <time>2018-05-29T15:49:23Z</time>
      </trkpt>
      <trkpt lat="43.84801" lon="6.51093">
        <ele>734</ele>
        <time>2018-05-29T15:49:24Z</time>
      </trkpt>
      <trkpt lat="43.84799" lon="6.511">
        <ele>734</ele>
        <time>2018-05-29T15:49:25Z</time>
      </trkpt>
      <trkpt lat="43.84797" lon="6.51106">
        <ele>734</ele>
        <time>2018-05-29T15:49:26Z</time>
      </trkpt>
      <trkpt lat="43.84795" lon="6.51112">
        <ele>734</ele>
        <time>2018-05-29T15:49:27Z</time>
      </trkpt>
      <trkpt lat="43.84793" lon="6.51119">
        <ele>734</ele>
        <time>2018-05-29T15:49:28Z</time>
      </trkpt>
      <trkpt lat="43.84778" lon="6.51168">
        <ele>735</ele>
        <time>2018-05-29T15:49:35Z</time>
      </trkpt>
      <trkpt lat="43.84777" lon="6.51176">
        <ele>735</ele>
        <time>2018-05-29T15:49:36Z</time>
      </trkpt>
      <trkpt lat="43.84774" lon="6.51208">
        <ele>736</ele>
        <time>2018-05-29T15:49:43Z</time>
      </trkpt>
      <trkpt lat="43.84775" lon="6.51211">
        <ele>736</ele>
        <time>2018-05-29T15:49:45Z</time>
      </trkpt>
      <trkpt lat="43.8477" lon="6.5125">
        <ele>738</ele>
        <time>2018-05-29T15:49:55Z</time>
      </trkpt>
      <trkpt lat="43.84767" lon="6.51263">
        <ele>738</ele>
        <time>2018-05-29T15:50:00Z</time>
      </trkpt>
      <trkpt lat="43.84765" lon="6.51265">
        <ele>737</ele>
        <time>2018-05-29T15:50:01Z</time>
      </trkpt>
      <trkpt lat="43.84764" lon="6.51268">
        <ele>737</ele>
        <time>2018-05-29T15:50:02Z</time>
      </trkpt>
      <trkpt lat="43.84762" lon="6.51271">
        <ele>736</ele>
        <time>2018-05-29T15:50:03Z</time>
      </trkpt>
      <trkpt lat="43.84761" lon="6.51274">
        <ele>736</ele>
        <time>2018-05-29T15:50:04Z</time>
      </trkpt>
      <trkpt lat="43.8476" lon="6.51277">
        <ele>736</ele>
        <time>2018-05-29T15:50:05Z</time>
      </trkpt>
      <trkpt lat="43.84758" lon="6.5128">
        <ele>735</ele>
        <time>2018-05-29T15:50:06Z</time>
      </trkpt>
      <trkpt lat="43.84757" lon="6.51283">
        <ele>735</ele>
        <time>2018-05-29T15:50:07Z</time>
      </trkpt>
      <trkpt lat="43.84739" lon="6.51313">
        <ele>735</ele>
        <time>2018-05-29T15:50:19Z</time>
      </trkpt>
      <trkpt lat="43.84715" lon="6.5135">
        <ele>732</ele>
        <time>2018-05-29T15:50:29Z</time>
      </trkpt>
      <trkpt lat="43.84711" lon="6.51358">
        <ele>732</ele>
        <time>2018-05-29T15:50:32Z</time>
      </trkpt>
      <trkpt lat="43.8471" lon="6.51361">
        <ele>732</ele>
        <time>2018-05-29T15:50:33Z</time>
      </trkpt>
      <trkpt lat="43.84709" lon="6.51364">
        <ele>732</ele>
        <time>2018-05-29T15:50:34Z</time>
      </trkpt>
      <trkpt lat="43.84707" lon="6.51367">
        <ele>732</ele>
        <time>2018-05-29T15:50:35Z</time>
      </trkpt>
      <trkpt lat="43.84706" lon="6.5137">
        <ele>732</ele>
        <time>2018-05-29T15:50:36Z</time>
      </trkpt>
      <trkpt lat="43.84704" lon="6.51373">
        <ele>732</ele>
        <time>2018-05-29T15:50:37Z</time>
      </trkpt>
      <trkpt lat="43.84703" lon="6.51377">
        <ele>732</ele>
        <time>2018-05-29T15:50:38Z</time>
      </trkpt>
      <trkpt lat="43.84695" lon="6.51389">
        <ele>731</ele>
        <time>2018-05-29T15:50:43Z</time>
      </trkpt>
      <trkpt lat="43.84693" lon="6.5139">
        <ele>731</ele>
        <time>2018-05-29T15:50:44Z</time>
      </trkpt>
      <trkpt lat="43.84692" lon="6.51389">
        <ele>731</ele>
        <time>2018-05-29T15:50:45Z</time>
      </trkpt>
      <trkpt lat="43.8469" lon="6.51388">
        <ele>731</ele>
        <time>2018-05-29T15:50:46Z</time>
      </trkpt>
      <trkpt lat="43.84689" lon="6.51386">
        <ele>730</ele>
        <time>2018-05-29T15:50:47Z</time>
      </trkpt>
      <trkpt lat="43.84672" lon="6.51374">
        <ele>728</ele>
        <time>2018-05-29T15:50:58Z</time>
      </trkpt>
      <trkpt lat="43.84672" lon="6.51371">
        <ele>728</ele>
        <time>2018-05-29T15:50:59Z</time>
      </trkpt>
      <trkpt lat="43.84672" lon="6.5137">
        <ele>728</ele>
        <time>2018-05-29T15:51:00Z</time>
      </trkpt>
      <trkpt lat="43.84674" lon="6.51368">
        <ele>728</ele>
        <time>2018-05-29T15:51:01Z</time>
      </trkpt>
      <trkpt lat="43.84675" lon="6.51366">
        <ele>728</ele>
        <time>2018-05-29T15:51:02Z</time>
      </trkpt>
      <trkpt lat="43.84691" lon="6.51341">
        <ele>729</ele>
        <time>2018-05-29T15:51:12Z</time>
      </trkpt>
      <trkpt lat="43.84708" lon="6.5132">
        <ele>730</ele>
        <time>2018-05-29T15:51:23Z</time>
      </trkpt>
      <trkpt lat="43.84709" lon="6.51317">
        <ele>730</ele>
        <time>2018-05-29T15:51:24Z</time>
      </trkpt>
      <trkpt lat="43.8471" lon="6.51315">
        <ele>730</ele>
        <time>2018-05-29T15:51:25Z</time>
      </trkpt>
      <trkpt lat="43.84711" lon="6.51313">
        <ele>730</ele>
        <time>2018-05-29T15:51:26Z</time>
      </trkpt>
      <trkpt lat="43.84712" lon="6.51311">
        <ele>730</ele>
        <time>2018-05-29T15:51:27Z</time>
      </trkpt>
      <trkpt lat="43.84713" lon="6.51309">
        <ele>730</ele>
        <time>2018-05-29T15:51:28Z</time>
      </trkpt>
      <trkpt lat="43.84714" lon="6.51307">
        <ele>730</ele>
        <time>2018-05-29T15:51:29Z</time>
      </trkpt>
      <trkpt lat="43.84715" lon="6.51306">
        <ele>731</ele>
        <time>2018-05-29T15:51:30Z</time>
      </trkpt>
      <trkpt lat="43.84716" lon="6.51304">
        <ele>731</ele>
        <time>2018-05-29T15:51:31Z</time>
      </trkpt>
      <trkpt lat="43.84717" lon="6.51302">
        <ele>731</ele>
        <time>2018-05-29T15:51:32Z</time>
      </trkpt>
      <trkpt lat="43.84718" lon="6.51301">
        <ele>731</ele>
        <time>2018-05-29T15:51:33Z</time>
      </trkpt>
      <trkpt lat="43.84719" lon="6.51299">
        <ele>731</ele>
        <time>2018-05-29T15:51:34Z</time>
      </trkpt>
      <trkpt lat="43.84727" lon="6.5129">
        <ele>732</ele>
        <time>2018-05-29T15:51:41Z</time>
      </trkpt>
      <trkpt lat="43.84741" lon="6.51262">
        <ele>733</ele>
        <time>2018-05-29T15:51:53Z</time>
      </trkpt>
      <trkpt lat="43.84741" lon="6.5126">
        <ele>733</ele>
        <time>2018-05-29T15:51:54Z</time>
      </trkpt>
      <trkpt lat="43.84742" lon="6.51258">
        <ele>733</ele>
        <time>2018-05-29T15:51:55Z</time>
      </trkpt>
      <trkpt lat="43.84743" lon="6.51255">
        <ele>733</ele>
        <time>2018-05-29T15:51:56Z</time>
      </trkpt>
      <trkpt lat="43.84743" lon="6.51252">
        <ele>733</ele>
        <time>2018-05-29T15:51:57Z</time>
      </trkpt>
      <trkpt lat="43.84745" lon="6.5125">
        <ele>733</ele>
        <time>2018-05-29T15:51:58Z</time>
      </trkpt>
      <trkpt lat="43.84746" lon="6.51248">
        <ele>733</ele>
        <time>2018-05-29T15:51:59Z</time>
      </trkpt>
      <trkpt lat="43.84747" lon="6.51245">
        <ele>733</ele>
        <time>2018-05-29T15:52:00Z</time>
      </trkpt>
      <trkpt lat="43.84748" lon="6.51243">
        <ele>733</ele>
        <time>2018-05-29T15:52:01Z</time>
      </trkpt>
      <trkpt lat="43.8475" lon="6.51242">
        <ele>733</ele>
        <time>2018-05-29T15:52:02Z</time>
      </trkpt>
      <trkpt lat="43.8475" lon="6.5124">
        <ele>733</ele>
        <time>2018-05-29T15:52:03Z</time>
      </trkpt>
      <trkpt lat="43.84751" lon="6.51239">
        <ele>733</ele>
        <time>2018-05-29T15:52:04Z</time>
      </trkpt>
      <trkpt lat="43.84751" lon="6.51237">
        <ele>733</ele>
        <time>2018-05-29T15:52:05Z</time>
      </trkpt>
      <trkpt lat="43.84752" lon="6.51234">
        <ele>734</ele>
        <time>2018-05-29T15:52:07Z</time>
      </trkpt>
      <trkpt lat="43.84763" lon="6.51207">
        <ele>734</ele>
        <time>2018-05-29T15:52:22Z</time>
      </trkpt>
      <trkpt lat="43.84762" lon="6.51207">
        <ele>734</ele>
        <time>2018-05-29T15:52:23Z</time>
      </trkpt>
      <trkpt lat="43.84758" lon="6.51208">
        <ele>734</ele>
        <time>2018-05-29T15:52:25Z</time>
      </trkpt>
      <trkpt lat="43.84753" lon="6.51209">
        <ele>734</ele>
        <time>2018-05-29T15:52:26Z</time>
      </trkpt>
      <trkpt lat="43.8475" lon="6.5121">
        <ele>733</ele>
        <time>2018-05-29T15:52:27Z</time>
      </trkpt>
      <trkpt lat="43.84746" lon="6.5121">
        <ele>733</ele>
        <time>2018-05-29T15:52:28Z</time>
      </trkpt>
      <trkpt lat="43.84743" lon="6.51211">
        <ele>733</ele>
        <time>2018-05-29T15:52:29Z</time>
      </trkpt>
      <trkpt lat="43.84739" lon="6.51211">
        <ele>733</ele>
        <time>2018-05-29T15:52:30Z</time>
      </trkpt>
      <trkpt lat="43.84735" lon="6.51211">
        <ele>732</ele>
        <time>2018-05-29T15:52:31Z</time>
      </trkpt>
      <trkpt lat="43.84703" lon="6.51217">
        <ele>731</ele>
        <time>2018-05-29T15:52:42Z</time>
      </trkpt>
      <trkpt lat="43.84677" lon="6.5124">
        <ele>730</ele>
        <time>2018-05-29T15:52:53Z</time>
      </trkpt>
      <trkpt lat="43.84664" lon="6.51246">
        <ele>730</ele>
        <time>2018-05-29T15:52:58Z</time>
      </trkpt>
      <trkpt lat="43.84623" lon="6.51242">
        <ele>728</ele>
        <time>2018-05-29T15:53:12Z</time>
      </trkpt>
      <trkpt lat="43.84607" lon="6.51223">
        <ele>727</ele>
        <time>2018-05-29T15:53:20Z</time>
      </trkpt>
      <trkpt lat="43.84604" lon="6.51222">
        <ele>727</ele>
        <time>2018-05-29T15:53:21Z</time>
      </trkpt>
      <trkpt lat="43.8456" lon="6.51209">
        <ele>723</ele>
        <time>2018-05-29T15:53:36Z</time>
      </trkpt>
      <trkpt lat="43.84515" lon="6.51193">
        <ele>721</ele>
        <time>2018-05-29T15:53:50Z</time>
      </trkpt>
      <trkpt lat="43.845" lon="6.51168">
        <ele>721</ele>
        <time>2018-05-29T15:53:58Z</time>
      </trkpt>
      <trkpt lat="43.84501" lon="6.51165">
        <ele>721</ele>
        <time>2018-05-29T15:53:59Z</time>
      </trkpt>
      <trkpt lat="43.84507" lon="6.51161">
        <ele>721</ele>
        <time>2018-05-29T15:54:02Z</time>
      </trkpt>
      <trkpt lat="43.84509" lon="6.51158">
        <ele>722</ele>
        <time>2018-05-29T15:54:03Z</time>
      </trkpt>
      <trkpt lat="43.8451" lon="6.51156">
        <ele>722</ele>
        <time>2018-05-29T15:54:04Z</time>
      </trkpt>
      <trkpt lat="43.8451" lon="6.51152">
        <ele>722</ele>
        <time>2018-05-29T15:54:05Z</time>
      </trkpt>
      <trkpt lat="43.8451" lon="6.51148">
        <ele>722</ele>
        <time>2018-05-29T15:54:06Z</time>
      </trkpt>
      <trkpt lat="43.84509" lon="6.51144">
        <ele>722</ele>
        <time>2018-05-29T15:54:07Z</time>
      </trkpt>
      <trkpt lat="43.84508" lon="6.5114">
        <ele>722</ele>
        <time>2018-05-29T15:54:08Z</time>
      </trkpt>
      <trkpt lat="43.84507" lon="6.51136">
        <ele>722</ele>
        <time>2018-05-29T15:54:09Z</time>
      </trkpt>
      <trkpt lat="43.84496" lon="6.51093">
        <ele>722</ele>
        <time>2018-05-29T15:54:18Z</time>
      </trkpt>
      <trkpt lat="43.84482" lon="6.51034">
        <ele>723</ele>
        <time>2018-05-29T15:54:28Z</time>
      </trkpt>
      <trkpt lat="43.84479" lon="6.51022">
        <ele>723</ele>
        <time>2018-05-29T15:54:30Z</time>
      </trkpt>
      <trkpt lat="43.84469" lon="6.50988">
        <ele>722</ele>
        <time>2018-05-29T15:54:36Z</time>
      </trkpt>
      <trkpt lat="43.84455" lon="6.50929">
        <ele>722</ele>
        <time>2018-05-29T15:54:47Z</time>
      </trkpt>
      <trkpt lat="43.84455" lon="6.50924">
        <ele>722</ele>
        <time>2018-05-29T15:54:48Z</time>
      </trkpt>
      <trkpt lat="43.84452" lon="6.50912">
        <ele>722</ele>
        <time>2018-05-29T15:54:50Z</time>
      </trkpt>
      <trkpt lat="43.84448" lon="6.50895">
        <ele>722</ele>
        <time>2018-05-29T15:54:53Z</time>
      </trkpt>
      <trkpt lat="43.84444" lon="6.50878">
        <ele>722</ele>
        <time>2018-05-29T15:54:56Z</time>
      </trkpt>
      <trkpt lat="43.84442" lon="6.50872">
        <ele>722</ele>
        <time>2018-05-29T15:54:57Z</time>
      </trkpt>
      <trkpt lat="43.8444" lon="6.50865">
        <ele>722</ele>
        <time>2018-05-29T15:54:59Z</time>
      </trkpt>
      <trkpt lat="43.84438" lon="6.50857">
        <ele>722</ele>
        <time>2018-05-29T15:55:00Z</time>
      </trkpt>
      <trkpt lat="43.84434" lon="6.50841">
        <ele>722</ele>
        <time>2018-05-29T15:55:03Z</time>
      </trkpt>
      <trkpt lat="43.84419" lon="6.50779">
        <ele>722</ele>
        <time>2018-05-29T15:55:13Z</time>
      </trkpt>
      <trkpt lat="43.84416" lon="6.50766">
        <ele>721</ele>
        <time>2018-05-29T15:55:15Z</time>
      </trkpt>
      <trkpt lat="43.84401" lon="6.50714">
        <ele>720</ele>
        <time>2018-05-29T15:55:24Z</time>
      </trkpt>
      <trkpt lat="43.844" lon="6.50708">
        <ele>720</ele>
        <time>2018-05-29T15:55:25Z</time>
      </trkpt>
      <trkpt lat="43.84387" lon="6.50658">
        <ele>719</ele>
        <time>2018-05-29T15:55:33Z</time>
      </trkpt>
      <trkpt lat="43.84377" lon="6.50618">
        <ele>719</ele>
        <time>2018-05-29T15:55:39Z</time>
      </trkpt>
      <trkpt lat="43.84375" lon="6.50611">
        <ele>719</ele>
        <time>2018-05-29T15:55:40Z</time>
      </trkpt>
      <trkpt lat="43.84374" lon="6.50604">
        <ele>719</ele>
        <time>2018-05-29T15:55:41Z</time>
      </trkpt>
      <trkpt lat="43.84368" lon="6.50584">
        <ele>719</ele>
        <time>2018-05-29T15:55:44Z</time>
      </trkpt>
      <trkpt lat="43.84363" lon="6.50563">
        <ele>719</ele>
        <time>2018-05-29T15:55:47Z</time>
      </trkpt>
      <trkpt lat="43.84348" lon="6.50503">
        <ele>719</ele>
        <time>2018-05-29T15:55:56Z</time>
      </trkpt>
      <trkpt lat="43.84319" lon="6.50394">
        <ele>719</ele>
        <time>2018-05-29T15:56:14Z</time>
      </trkpt>
      <trkpt lat="43.84311" lon="6.50378">
        <ele>719</ele>
        <time>2018-05-29T15:56:18Z</time>
      </trkpt>
      <trkpt lat="43.84309" lon="6.50372">
        <ele>719</ele>
        <time>2018-05-29T15:56:19Z</time>
      </trkpt>
      <trkpt lat="43.84269" lon="6.50277">
        <ele>719</ele>
        <time>2018-05-29T15:56:32Z</time>
      </trkpt>
      <trkpt lat="43.84215" lon="6.50149">
        <ele>719</ele>
        <time>2018-05-29T15:56:50Z</time>
      </trkpt>
      <trkpt lat="43.84167" lon="6.50039">
        <ele>719</ele>
        <time>2018-05-29T15:57:07Z</time>
      </trkpt>
      <trkpt lat="43.84128" lon="6.49948">
        <ele>719</ele>
        <time>2018-05-29T15:57:21Z</time>
      </trkpt>
      <trkpt lat="43.84105" lon="6.49895">
        <ele>720</ele>
        <time>2018-05-29T15:57:29Z</time>
      </trkpt>
      <trkpt lat="43.84063" lon="6.49796">
        <ele>719</ele>
        <time>2018-05-29T15:57:44Z</time>
      </trkpt>
      <trkpt lat="43.84035" lon="6.49734">
        <ele>719</ele>
        <time>2018-05-29T15:57:54Z</time>
      </trkpt>
      <trkpt lat="43.84033" lon="6.49728">
        <ele>719</ele>
        <time>2018-05-29T15:57:55Z</time>
      </trkpt>
      <trkpt lat="43.84031" lon="6.49722">
        <ele>719</ele>
        <time>2018-05-29T15:57:56Z</time>
      </trkpt>
      <trkpt lat="43.84029" lon="6.49716">
        <ele>719</ele>
        <time>2018-05-29T15:57:57Z</time>
      </trkpt>
      <trkpt lat="43.84027" lon="6.4971">
        <ele>719</ele>
        <time>2018-05-29T15:57:58Z</time>
      </trkpt>
      <trkpt lat="43.84025" lon="6.49705">
        <ele>719</ele>
        <time>2018-05-29T15:57:59Z</time>
      </trkpt>
      <trkpt lat="43.84017" lon="6.49686">
        <ele>719</ele>
        <time>2018-05-29T15:58:03Z</time>
      </trkpt>
      <trkpt lat="43.83987" lon="6.49614">
        <ele>719</ele>
        <time>2018-05-29T15:58:18Z</time>
      </trkpt>
      <trkpt lat="43.83968" lon="6.49566">
        <ele>718</ele>
        <time>2018-05-29T15:58:30Z</time>
      </trkpt>
      <trkpt lat="43.83974" lon="6.49554">
        <ele>718</ele>
        <time>2018-05-29T15:58:37Z</time>
      </trkpt>
      <trkpt lat="43.83971" lon="6.49551">
        <ele>718</ele>
        <time>2018-05-29T15:58:38Z</time>
      </trkpt>
      <trkpt lat="43.83968" lon="6.49549">
        <ele>718</ele>
        <time>2018-05-29T15:58:39Z</time>
      </trkpt>
      <trkpt lat="43.83966" lon="6.49547">
        <ele>718</ele>
        <time>2018-05-29T15:58:40Z</time>
      </trkpt>
      <trkpt lat="43.83964" lon="6.49544">
        <ele>718</ele>
        <time>2018-05-29T15:58:41Z</time>
      </trkpt>
      <trkpt lat="43.83962" lon="6.4954">
        <ele>718</ele>
        <time>2018-05-29T15:58:42Z</time>
      </trkpt>
      <trkpt lat="43.83961" lon="6.49536">
        <ele>718</ele>
        <time>2018-05-29T15:58:43Z</time>
      </trkpt>
      <trkpt lat="43.8396" lon="6.49532">
        <ele>718</ele>
        <time>2018-05-29T15:58:44Z</time>
      </trkpt>
      <trkpt lat="43.8396" lon="6.49527">
        <ele>718</ele>
        <time>2018-05-29T15:58:45Z</time>
      </trkpt>
      <trkpt lat="43.83959" lon="6.49523">
        <ele>718</ele>
        <time>2018-05-29T15:58:46Z</time>
      </trkpt>
      <trkpt lat="43.83959" lon="6.49519">
        <ele>718</ele>
        <time>2018-05-29T15:58:47Z</time>
      </trkpt>
      <trkpt lat="43.83951" lon="6.49469">
        <ele>717</ele>
        <time>2018-05-29T15:59:00Z</time>
      </trkpt>
      <trkpt lat="43.83925" lon="6.4946">
        <ele>717</ele>
        <time>2018-05-29T15:59:08Z</time>
      </trkpt>
      <trkpt lat="43.83921" lon="6.4946">
        <ele>717</ele>
        <time>2018-05-29T15:59:09Z</time>
      </trkpt>
      <trkpt lat="43.83916" lon="6.49459">
        <ele>717</ele>
        <time>2018-05-29T15:59:10Z</time>
      </trkpt>
      <trkpt lat="43.83867" lon="6.49451">
        <ele>717</ele>
        <time>2018-05-29T15:59:23Z</time>
      </trkpt>
      <trkpt lat="43.83866" lon="6.49448">
        <ele>717</ele>
        <time>2018-05-29T15:59:24Z</time>
      </trkpt>
      <trkpt lat="43.83865" lon="6.49444">
        <ele>717</ele>
        <time>2018-05-29T15:59:25Z</time>
      </trkpt>
      <trkpt lat="43.83865" lon="6.4944">
        <ele>717</ele>
        <time>2018-05-29T15:59:26Z</time>
      </trkpt>
      <trkpt lat="43.83865" lon="6.49437">
        <ele>717</ele>
        <time>2018-05-29T15:59:27Z</time>
      </trkpt>
      <trkpt lat="43.83866" lon="6.49424">
        <ele>717</ele>
        <time>2018-05-29T15:59:31Z</time>
      </trkpt>
      <trkpt lat="43.83868" lon="6.49422">
        <ele>717</ele>
        <time>2018-05-29T15:59:32Z</time>
      </trkpt>
      <trkpt lat="43.8387" lon="6.4942">
        <ele>717</ele>
        <time>2018-05-29T15:59:33Z</time>
      </trkpt>
      <trkpt lat="43.83876" lon="6.49413">
        <ele>717</ele>
        <time>2018-05-29T15:59:41Z</time>
      </trkpt>
      <trkpt lat="43.83872" lon="6.49416">
        <ele>717</ele>
        <time>2018-05-29T15:59:51Z</time>
      </trkpt>
      <trkpt lat="43.83871" lon="6.49418">
        <ele>717</ele>
        <time>2018-05-29T15:59:52Z</time>
      </trkpt>
      <trkpt lat="43.8387" lon="6.49419">
        <ele>717</ele>
        <time>2018-05-29T15:59:53Z</time>
      </trkpt>
      <trkpt lat="43.83863" lon="6.49425">
        <ele>717</ele>
        <time>2018-05-29T15:59:57Z</time>
      </trkpt>
      <trkpt lat="43.83863" lon="6.49427">
        <ele>717</ele>
        <time>2018-05-29T15:59:58Z</time>
      </trkpt>
      <trkpt lat="43.83863" lon="6.4943">
        <ele>717</ele>
        <time>2018-05-29T15:59:59Z</time>
      </trkpt>
      <trkpt lat="43.83862" lon="6.49432">
        <ele>717</ele>
        <time>2018-05-29T16:00:00Z</time>
      </trkpt>
      <trkpt lat="43.8386" lon="6.49433">
        <ele>717</ele>
        <time>2018-05-29T16:00:01Z</time>
      </trkpt>
      <trkpt lat="43.83858" lon="6.49435">
        <ele>717</ele>
        <time>2018-05-29T16:00:02Z</time>
      </trkpt>
      <trkpt lat="43.83856" lon="6.49436">
        <ele>717</ele>
        <time>2018-05-29T16:00:03Z</time>
      </trkpt>
      <trkpt lat="43.83853" lon="6.49438">
        <ele>717</ele>
        <time>2018-05-29T16:00:04Z</time>
      </trkpt>
      <trkpt lat="43.83849" lon="6.49439">
        <ele>717</ele>
        <time>2018-05-29T16:00:05Z</time>
      </trkpt>
      <trkpt lat="43.83813" lon="6.49457">
        <ele>716</ele>
        <time>2018-05-29T16:00:14Z</time>
      </trkpt>
      <trkpt lat="43.83779" lon="6.4948">
        <ele>715</ele>
        <time>2018-05-29T16:00:24Z</time>
      </trkpt>
      <trkpt lat="43.83777" lon="6.49539">
        <ele>717</ele>
        <time>2018-05-29T16:00:39Z</time>
      </trkpt>
      <trkpt lat="43.83777" lon="6.49579">
        <ele>719</ele>
        <time>2018-05-29T16:00:51Z</time>
      </trkpt>
      <trkpt lat="43.83778" lon="6.49582">
        <ele>719</ele>
        <time>2018-05-29T16:00:52Z</time>
      </trkpt>
    </trkseg>
  </trk>
</gpx>